createdAt,value
2022-10-20T00:01:40.825Z,15.93
2022-10-20T00:04:08.899Z,10.10
2022-10-20T00:06:39.793Z,14.40
2022-10-20T00:09:08.827Z,11.80
2022-10-20T00:11:39.637Z,14.83
2022-10-20T00:14:10.635Z,14.07
2022-10-20T00:16:40.638Z,12.97
2022-10-20T00:19:08.735Z,14.83
2022-10-20T00:21:36.833Z,12.73
2022-10-20T00:24:05.375Z,12.10
2022-10-20T00:26:34.285Z,14.20
2022-10-20T00:29:05.137Z,19.77
2022-10-20T00:31:33.926Z,14.43
2022-10-20T00:34:01.929Z,11.33
2022-10-20T00:36:30.166Z,12.57
2022-10-20T00:39:00.212Z,11.33
2022-10-20T00:41:32.956Z,11.27
2022-10-20T00:44:03.833Z,11.87
2022-10-20T00:46:37.400Z,12.67
2022-10-20T00:49:12.431Z,13.37
2022-10-20T00:51:40.604Z,13.30
2022-10-20T00:54:11.494Z,16.07
2022-10-20T00:56:43.252Z,20.43
2022-10-20T00:59:19.632Z,12.60
2022-10-20T01:01:47.843Z,12.20
2022-10-20T01:04:17.011Z,11.27
2022-10-20T01:06:45.511Z,11.10
2022-10-20T01:09:13.859Z,10.47
2022-10-20T01:11:47.395Z,10.60
2022-10-20T01:14:34.477Z,10.07
2022-10-20T01:17:12.923Z,10.70
2022-10-20T01:20:19.782Z,13.93
2022-10-20T01:23:24.587Z,12.67
2022-10-20T01:26:09.104Z,12.60
2022-10-20T01:28:43.848Z,16.73
2022-10-20T01:31:21.731Z,10.30
2022-10-20T01:33:55.776Z,14.10
2022-10-20T01:36:29.997Z,20.70
2022-10-20T01:39:02.879Z,18.17
2022-10-20T01:41:34.959Z,47.90
2022-10-20T01:44:07.135Z,25.33
2022-10-20T01:46:36.778Z,12.47
2022-10-20T01:49:06.118Z,13.87
2022-10-20T01:51:34.679Z,13.50
2022-10-20T01:54:02.782Z,17.57
2022-10-20T01:56:39.236Z,58.20
2022-10-20T01:59:24.039Z,48.27
2022-10-20T02:02:12.786Z,22.63
2022-10-20T02:04:59.318Z,17.33
2022-10-20T02:07:32.126Z,15.77
2022-10-20T02:10:05.864Z,15.90
2022-10-20T02:12:38.452Z,15.37
2022-10-20T02:15:12.230Z,13.83
2022-10-20T02:17:43.042Z,23.10
2022-10-20T02:20:12.128Z,20.70
2022-10-20T02:22:41.496Z,16.53
2022-10-20T02:25:12.564Z,15.30
2022-10-20T02:27:43.420Z,12.07
2022-10-20T02:30:15.308Z,16.77
2022-10-20T02:32:49.233Z,11.63
2022-10-20T02:35:21.148Z,20.10
2022-10-20T02:37:52.695Z,13.97
2022-10-20T02:40:22.270Z,23.83
2022-10-20T02:42:50.963Z,16.30
2022-10-20T02:45:20.552Z,18.93
2022-10-20T02:47:48.619Z,20.60
2022-10-20T02:50:17.110Z,13.20
2022-10-20T02:52:45.183Z,16.27
2022-10-20T02:55:13.240Z,19.90
2022-10-20T02:57:41.393Z,14.43
2022-10-20T03:00:10.718Z,15.87
2022-10-20T03:02:40.128Z,53.27
2022-10-20T03:05:11.760Z,42.47
2022-10-20T03:07:43.026Z,13.07
2022-10-20T03:10:11.047Z,18.70
2022-10-20T03:12:39.042Z,12.60
2022-10-20T03:15:07.779Z,14.70
2022-10-20T03:17:36.226Z,15.03
2022-10-20T03:20:07.142Z,20.67
2022-10-20T03:22:35.293Z,13.60
2022-10-20T03:25:03.367Z,38.87
2022-10-20T03:27:31.407Z,18.13
2022-10-20T03:29:59.407Z,11.17
2022-10-20T03:32:27.375Z,15.80
2022-10-20T03:34:55.476Z,22.40
2022-10-20T03:37:24.923Z,17.03
2022-10-20T03:39:52.946Z,17.80
2022-10-20T03:42:23.603Z,18.00
2022-10-20T03:44:51.718Z,15.13
2022-10-20T03:47:19.816Z,16.80
2022-10-20T03:49:47.921Z,19.13
2022-10-20T03:52:16.070Z,11.70
2022-10-20T03:54:45.553Z,15.30
2022-10-20T03:57:13.628Z,14.30
2022-10-20T03:59:42.104Z,14.10
2022-10-20T04:02:34.867Z,14.70
2022-10-20T04:05:05.738Z,13.93
2022-10-20T04:07:36.555Z,11.60
2022-10-20T04:10:06.456Z,11.60
2022-10-20T04:12:35.858Z,14.00
2022-10-20T04:15:04.972Z,10.00
2022-10-20T04:17:33.096Z,12.93
2022-10-20T04:20:01.354Z,15.07
2022-10-20T04:22:29.313Z,12.87
2022-10-20T04:24:57.315Z,17.30
2022-10-20T04:27:29.215Z,23.93
2022-10-20T04:29:57.307Z,17.03
2022-10-20T04:32:25.332Z,20.30
2022-10-20T04:34:53.491Z,13.03
2022-10-20T04:37:21.489Z,20.20
2022-10-20T04:39:52.312Z,17.37
2022-10-20T04:42:20.666Z,23.20
2022-10-20T04:44:53.188Z,20.60
2022-10-20T04:47:21.244Z,17.80
2022-10-20T04:49:52.336Z,58.87
2022-10-20T04:52:21.375Z,70.07
2022-10-20T04:54:49.404Z,77.53
2022-10-20T04:57:17.471Z,208.97
2022-10-20T04:59:45.546Z,64.63
2022-10-20T05:02:15.080Z,65.43
2022-10-20T05:04:43.164Z,72.33
2022-10-20T05:07:14.004Z,37.80
2022-10-20T05:09:42.031Z,21.40
2022-10-20T05:12:10.186Z,25.00
2022-10-20T05:14:38.575Z,20.67
2022-10-20T05:17:10.104Z,23.23
2022-10-20T05:19:48.465Z,43.07
2022-10-20T05:22:20.597Z,43.67
2022-10-20T05:24:48.966Z,70.67
2022-10-20T05:27:17.426Z,105.73
2022-10-20T05:29:45.516Z,59.90
2022-10-20T05:32:13.513Z,58.20
2022-10-20T05:34:43.935Z,78.77
2022-10-20T05:37:12.006Z,56.60
2022-10-20T05:39:40.188Z,102.87
2022-10-20T05:42:08.313Z,118.37
2022-10-20T05:44:39.200Z,164.60
2022-10-20T05:47:07.252Z,40.53
2022-10-20T05:49:35.224Z,48.83
2022-10-20T05:52:04.592Z,67.50
2022-10-20T05:54:32.753Z,58.13
2022-10-20T05:57:02.043Z,128.70
2022-10-20T05:59:30.342Z,52.77
2022-10-20T06:01:58.395Z,66.10
2022-10-20T06:04:28.268Z,41.10
2022-10-20T06:07:00.427Z,41.73
2022-10-20T06:09:29.963Z,35.33
2022-10-20T06:12:00.129Z,35.73
2022-10-20T06:14:28.458Z,26.17
2022-10-20T06:16:57.231Z,31.53
2022-10-20T06:19:26.364Z,36.57
2022-10-20T06:21:54.760Z,34.80
2022-10-20T06:24:23.537Z,33.30
2022-10-20T06:26:52.961Z,24.13
2022-10-20T06:29:21.328Z,26.77
2022-10-20T06:31:53.623Z,29.13
2022-10-20T06:34:22.984Z,38.13
2022-10-20T06:36:51.379Z,25.20
2022-10-20T06:39:21.659Z,26.67
2022-10-20T06:41:50.640Z,17.50
2022-10-20T06:44:21.352Z,25.23
2022-10-20T06:46:49.880Z,18.93
2022-10-20T06:49:17.904Z,19.43
2022-10-20T06:51:46.148Z,16.73
2022-10-20T06:54:14.569Z,24.07
2022-10-20T06:56:42.915Z,23.70
2022-10-20T06:59:11.596Z,17.10
2022-10-20T07:01:41.606Z,22.77
2022-10-20T07:04:14.494Z,21.20
2022-10-20T07:06:44.738Z,27.50
2022-10-20T07:09:15.785Z,27.83
2022-10-20T07:11:43.990Z,14.47
2022-10-20T07:14:14.284Z,18.23
2022-10-20T07:16:43.772Z,17.50
2022-10-20T07:19:11.924Z,21.03
2022-10-20T07:21:45.502Z,18.30
2022-10-20T07:24:15.352Z,17.37
2022-10-20T07:26:44.030Z,21.37
2022-10-20T07:29:12.358Z,18.50
2022-10-20T07:31:41.959Z,21.80
2022-10-20T07:34:25.030Z,16.80
2022-10-20T07:36:58.166Z,16.67
2022-10-20T07:39:26.793Z,20.00
2022-10-20T07:41:54.999Z,17.10
2022-10-20T07:44:23.377Z,15.30
2022-10-20T07:46:51.450Z,19.10
2022-10-20T07:52:09.775Z,19.30
2022-10-20T07:54:37.845Z,18.83
2022-10-20T07:57:05.868Z,31.80
2022-10-20T07:59:33.820Z,15.40
2022-10-20T08:02:02.134Z,19.10
2022-10-20T08:04:32.010Z,13.40
2022-10-20T08:07:00.682Z,20.33
2022-10-20T08:09:29.374Z,18.27
2022-10-20T08:11:57.645Z,15.63
2022-10-20T08:14:27.797Z,14.90
2022-10-20T08:16:59.142Z,17.00
2022-10-20T08:19:34.348Z,15.30
2022-10-20T08:22:03.864Z,12.60
2022-10-20T08:24:32.263Z,17.43
2022-10-20T08:27:01.334Z,14.90
2022-10-20T08:29:29.516Z,20.93
2022-10-20T08:31:57.582Z,9.63
2022-10-20T08:34:26.003Z,11.30
2022-10-20T08:36:54.178Z,12.23
2022-10-20T08:39:23.620Z,10.20
2022-10-20T08:42:08.219Z,12.03
2022-10-20T08:44:39.379Z,18.23
2022-10-20T08:47:18.667Z,12.17
2022-10-20T08:49:47.764Z,12.83
2022-10-20T08:52:23.789Z,8.50
2022-10-20T08:54:55.916Z,17.00
2022-10-20T08:57:27.247Z,10.97
2022-10-20T08:59:57.472Z,12.53
2022-10-20T09:02:25.468Z,9.97
2022-10-20T09:04:56.500Z,8.63
2022-10-20T09:07:29.476Z,10.33
2022-10-20T09:10:05.310Z,10.27
2022-10-20T09:12:34.515Z,12.93
2022-10-20T09:15:04.045Z,11.00
2022-10-20T09:17:32.022Z,12.90
2022-10-20T09:20:01.155Z,11.73
2022-10-20T09:22:35.669Z,13.57
2022-10-20T09:25:10.363Z,12.53
2022-10-20T09:27:40.008Z,12.20
2022-10-20T09:30:16.450Z,10.60
2022-10-20T09:32:47.351Z,14.53
2022-10-20T09:35:28.509Z,12.40
2022-10-20T09:38:02.531Z,17.30
2022-10-20T09:40:32.732Z,14.10
2022-10-20T09:43:03.988Z,12.20
2022-10-20T09:45:35.113Z,14.00
2022-10-20T09:48:09.009Z,14.63
2022-10-20T09:50:41.200Z,11.47
2022-10-20T09:53:19.981Z,10.50
2022-10-20T09:55:51.974Z,11.90
2022-10-20T09:58:24.084Z,13.03
2022-10-20T10:01:01.305Z,10.70
2022-10-20T10:03:30.018Z,10.37
2022-10-20T10:05:59.680Z,15.20
2022-10-20T10:08:30.759Z,14.47
2022-10-20T10:11:02.905Z,11.13
2022-10-20T10:13:33.082Z,11.07
2022-10-20T10:16:04.058Z,9.83
2022-10-20T10:18:32.404Z,15.83
2022-10-20T10:21:03.614Z,13.07
2022-10-20T10:23:34.006Z,10.87
2022-10-20T10:26:04.290Z,12.70
2022-10-20T10:28:35.397Z,15.77
2022-10-20T10:31:09.431Z,9.20
2022-10-20T10:33:37.435Z,10.10
2022-10-20T10:36:12.863Z,8.90
2022-10-20T10:38:41.024Z,9.53
2022-10-20T10:41:23.729Z,7.30
2022-10-20T10:43:57.919Z,9.53
2022-10-20T10:46:29.744Z,11.80
2022-10-20T10:49:21.351Z,8.10
2022-10-20T10:52:00.535Z,9.90
2022-10-20T10:54:50.010Z,8.50
2022-10-20T10:57:31.099Z,11.53
2022-10-20T11:00:02.951Z,12.43
2022-10-20T11:02:47.838Z,12.10
2022-10-20T11:05:52.060Z,12.03
2022-10-20T11:08:29.277Z,9.73
2022-10-20T11:11:06.396Z,9.70
2022-10-20T11:13:43.683Z,12.73
2022-10-20T11:16:27.658Z,13.57
2022-10-20T11:19:34.274Z,11.13
2022-10-20T11:22:14.039Z,14.17
2022-10-20T11:24:50.243Z,9.53
2022-10-20T11:27:21.651Z,17.30
2022-10-20T11:29:54.239Z,11.73
2022-10-20T11:32:27.834Z,11.83
2022-10-20T11:35:05.255Z,12.80
2022-10-20T11:37:40.127Z,12.10
2022-10-20T11:40:21.226Z,11.77
2022-10-20T11:42:56.324Z,13.80
2022-10-20T11:45:39.239Z,13.03
2022-10-20T11:48:16.206Z,23.13
2022-10-20T11:50:50.840Z,16.70
2022-10-20T11:53:36.523Z,18.37
2022-10-20T11:56:29.205Z,23.77
2022-10-20T11:59:17.720Z,16.53
2022-10-20T12:02:06.694Z,17.53
2022-10-20T12:04:55.319Z,15.70
2022-10-20T12:07:51.586Z,15.50
2022-10-20T12:10:36.632Z,13.60
2022-10-20T12:13:31.672Z,15.63
2022-10-20T12:16:00.049Z,16.80
2022-10-20T12:18:30.771Z,17.73
2022-10-20T12:21:01.857Z,12.73
2022-10-20T12:24:05.704Z,16.73
2022-10-20T12:26:43.818Z,18.53
2022-10-20T12:29:56.775Z,15.23
2022-10-20T12:32:55.398Z,19.30
2022-10-20T12:35:47.641Z,14.73
2022-10-20T12:38:19.414Z,17.93
2022-10-20T12:40:55.107Z,15.07
2022-10-20T12:43:30.188Z,17.43
2022-10-20T12:46:04.635Z,13.57
2022-10-20T12:48:36.026Z,16.10
2022-10-20T12:51:09.849Z,18.43
2022-10-20T12:53:39.024Z,15.20
2022-10-20T12:56:09.680Z,18.10
2022-10-20T12:58:39.566Z,14.23
2022-10-20T13:01:11.021Z,16.77
2022-10-20T13:03:47.958Z,13.90
2022-10-20T13:06:43.256Z,15.50
2022-10-20T13:09:25.429Z,18.07
2022-10-20T13:12:06.096Z,16.30
2022-10-20T13:15:04.616Z,22.60
2022-10-20T13:17:53.483Z,14.37
2022-10-20T13:20:29.430Z,15.13
2022-10-20T13:23:03.659Z,17.80
2022-10-20T13:25:39.678Z,15.83
2022-10-20T13:28:18.368Z,18.43
2022-10-20T13:31:12.165Z,19.93
2022-10-20T13:34:03.086Z,14.20
2022-10-20T13:36:43.832Z,14.60
2022-10-20T13:39:20.744Z,17.20
2022-10-20T13:41:58.768Z,15.00
2022-10-20T13:44:35.196Z,16.93
2022-10-20T13:47:32.777Z,15.03
2022-10-20T13:50:06.013Z,16.27
2022-10-20T13:52:39.058Z,17.70
2022-10-20T13:55:17.633Z,16.27
2022-10-20T13:57:55.488Z,17.13
2022-10-20T14:00:27.613Z,21.67
2022-10-20T14:03:01.060Z,19.30
2022-10-20T14:05:31.518Z,16.60
2022-10-20T14:08:04.663Z,18.40
2022-10-20T14:10:44.464Z,17.53
2022-10-20T14:13:17.716Z,16.93
2022-10-20T14:15:49.704Z,15.83
2022-10-20T14:18:29.236Z,17.30
2022-10-20T14:21:01.110Z,18.20
2022-10-20T14:23:32.465Z,14.37
2022-10-20T14:26:03.850Z,100.53
2022-10-20T14:28:34.433Z,20.90
2022-10-20T14:31:03.222Z,16.87
2022-10-20T14:33:32.819Z,26.60
2022-10-20T14:36:02.782Z,34.10
2022-10-20T14:38:37.725Z,66.40
2022-10-20T14:41:08.735Z,25.13
2022-10-20T14:43:40.155Z,14.30
2022-10-20T14:46:11.334Z,17.13
2022-10-20T14:48:43.955Z,29.70
2022-10-20T14:51:38.386Z,18.50
2022-10-20T14:54:24.171Z,58.87
2022-10-20T14:56:57.697Z,18.47
2022-10-20T14:59:30.354Z,15.07
2022-10-20T15:02:09.286Z,12.10
2022-10-20T15:04:39.835Z,17.90
2022-10-20T15:07:14.907Z,12.17
2022-10-20T15:09:46.348Z,12.03
2022-10-20T15:12:20.308Z,17.90
2022-10-20T15:14:54.803Z,14.77
2022-10-20T15:17:40.944Z,14.80
2022-10-20T15:20:37.937Z,13.30
2022-10-20T15:23:09.271Z,14.80
2022-10-20T15:25:44.120Z,14.97
2022-10-20T15:28:24.131Z,12.70
2022-10-20T15:30:52.504Z,15.33
2022-10-20T15:33:21.237Z,20.53
2022-10-20T15:35:50.472Z,31.73
2022-10-20T15:38:18.483Z,22.90
2022-10-20T15:40:46.947Z,16.87
2022-10-20T15:43:17.387Z,18.40
2022-10-20T15:45:49.893Z,15.27
2022-10-20T15:48:18.707Z,15.03
2022-10-20T15:50:47.133Z,13.30
2022-10-20T15:53:17.722Z,21.70
2022-10-20T15:55:50.476Z,20.47
2022-10-20T15:58:18.534Z,17.13
2022-10-20T16:00:49.886Z,20.50
2022-10-20T16:03:19.341Z,13.50
2022-10-20T16:05:48.006Z,19.80
2022-10-20T16:08:16.204Z,13.77
2022-10-20T16:10:45.323Z,11.07
2022-10-20T16:13:15.812Z,26.50
2022-10-20T16:15:43.770Z,19.87
2022-10-20T16:18:13.199Z,26.40
2022-10-20T16:20:41.190Z,15.40
2022-10-20T16:23:09.505Z,14.40
2022-10-20T16:25:40.755Z,13.20
2022-10-20T16:28:09.124Z,16.97
2022-10-20T16:30:37.340Z,19.30
2022-10-20T16:33:05.538Z,13.47
2022-10-20T16:35:34.955Z,16.60
2022-10-20T16:38:03.267Z,20.40
2022-10-20T16:40:31.263Z,18.97
2022-10-20T16:43:00.700Z,15.60
2022-10-20T16:45:28.834Z,17.13
2022-10-20T16:47:56.880Z,17.50
2022-10-20T16:50:24.906Z,19.57
2022-10-20T16:52:54.232Z,17.63
2022-10-20T16:55:22.341Z,14.63
2022-10-20T16:57:51.759Z,22.20
2022-10-20T17:00:20.426Z,21.40
2022-10-20T17:02:48.993Z,16.03
2022-10-20T17:05:19.899Z,20.03
2022-10-20T17:07:48.164Z,16.93
2022-10-20T17:10:22.956Z,14.73
2022-10-20T17:12:52.751Z,15.90
2022-10-20T17:15:21.002Z,16.77
2022-10-20T17:17:49.907Z,18.63
2022-10-20T17:20:18.516Z,14.93
2022-10-20T17:22:46.748Z,15.73
2022-10-20T17:25:15.663Z,18.20
2022-10-20T17:27:49.940Z,16.63
2022-10-20T17:30:19.806Z,23.47
2022-10-20T17:32:49.159Z,15.70
2022-10-20T17:35:20.772Z,30.90
2022-10-20T17:37:49.131Z,16.40
2022-10-20T17:40:20.720Z,21.53
2022-10-20T17:42:55.791Z,18.90
2022-10-20T17:45:25.536Z,16.27
2022-10-20T17:47:53.777Z,25.87
2022-10-20T17:50:22.368Z,17.70
2022-10-20T17:52:50.603Z,18.63
2022-10-20T17:55:22.880Z,17.53
2022-10-20T17:57:53.082Z,17.20
2022-10-20T18:00:27.001Z,18.30
2022-10-20T18:03:13.083Z,25.43
2022-10-20T18:05:44.296Z,22.13
2022-10-20T18:08:12.753Z,15.73
2022-10-20T18:10:44.014Z,16.07
2022-10-20T18:13:14.712Z,18.07
2022-10-20T18:15:45.571Z,17.57
2022-10-20T18:18:14.746Z,27.03
2022-10-20T18:20:43.297Z,18.80
2022-10-20T18:23:12.369Z,20.60
2022-10-20T18:25:47.550Z,16.80
2022-10-20T18:28:26.678Z,18.13
2022-10-20T18:30:55.395Z,19.27
2022-10-20T18:33:27.678Z,19.57
2022-10-20T18:35:57.025Z,20.27
2022-10-20T18:38:25.047Z,20.07
2022-10-20T18:40:53.415Z,20.20
2022-10-20T18:43:22.787Z,22.00
2022-10-20T18:45:54.259Z,19.07
2022-10-20T18:48:22.303Z,19.00
2022-10-20T18:50:56.958Z,16.30
2022-10-20T18:53:25.452Z,18.60
2022-10-20T18:56:00.851Z,19.43
2022-10-20T18:58:31.922Z,19.47
2022-10-20T19:01:01.301Z,17.23
2022-10-20T19:03:31.461Z,20.90
2022-10-20T19:06:00.611Z,25.53
2022-10-20T19:08:33.536Z,18.73
2022-10-20T19:11:01.576Z,19.30
2022-10-20T19:13:31.589Z,28.07
2022-10-20T19:16:00.164Z,24.83
2022-10-20T19:18:30.350Z,25.57
2022-10-20T19:20:59.498Z,30.80
2022-10-20T19:23:28.519Z,24.73
2022-10-20T19:26:04.340Z,25.97
2022-10-20T19:28:35.598Z,19.80
2022-10-20T19:31:03.904Z,19.60
2022-10-20T19:33:31.903Z,21.97
2022-10-20T19:35:59.882Z,18.97
2022-10-20T19:38:28.222Z,26.03
2022-10-20T19:40:56.344Z,18.93
2022-10-20T19:43:24.782Z,15.50
2022-10-20T19:45:54.146Z,17.57
2022-10-20T19:48:22.378Z,20.27
2022-10-20T19:50:50.590Z,21.23
2022-10-20T19:53:18.665Z,20.53
2022-10-20T19:55:48.026Z,23.50
2022-10-20T19:58:17.353Z,21.10
2022-10-20T20:00:47.188Z,22.20
2022-10-20T20:03:16.847Z,21.00
2022-10-20T20:05:48.274Z,19.27
2022-10-20T20:08:17.647Z,21.80
2022-10-20T20:10:52.382Z,21.30
2022-10-20T20:13:20.457Z,29.03
2022-10-20T20:15:48.682Z,28.90
2022-10-20T20:18:18.432Z,38.57
2022-10-20T20:20:48.418Z,28.17
2022-10-20T20:23:22.505Z,23.63
2022-10-20T20:25:54.288Z,29.23
2022-10-20T20:28:22.275Z,29.77
2022-10-20T20:31:00.092Z,27.50
2022-10-20T20:33:29.933Z,25.43
2022-10-20T20:35:58.356Z,26.83
2022-10-20T20:38:28.177Z,27.47
2022-10-20T20:41:00.211Z,22.90
2022-10-20T20:43:28.715Z,27.40
2022-10-20T20:45:56.950Z,24.03
2022-10-20T20:48:24.984Z,20.33
2022-10-20T20:50:55.165Z,27.73
2022-10-20T20:53:23.816Z,25.97
2022-10-20T20:55:56.312Z,28.43
2022-10-20T20:58:24.885Z,27.57
2022-10-20T21:01:01.046Z,25.10
2022-10-20T21:03:29.439Z,26.97
2022-10-20T21:05:59.211Z,26.93
2022-10-20T21:08:27.394Z,23.67
2022-10-20T21:10:55.575Z,28.50
2022-10-20T21:13:23.559Z,23.50
2022-10-20T21:15:51.613Z,27.20
2022-10-20T21:18:19.612Z,27.80
2022-10-20T21:20:47.556Z,26.73
2022-10-20T21:23:16.852Z,23.07
2022-10-20T21:25:47.233Z,34.40
2022-10-20T21:28:15.289Z,25.70
2022-10-20T21:30:43.361Z,28.60
2022-10-20T21:33:11.393Z,21.77
2022-10-20T21:35:39.321Z,25.17
2022-10-20T21:38:07.283Z,28.30
2022-10-20T21:40:36.759Z,27.93
2022-10-20T21:43:04.830Z,20.70
2022-10-20T21:45:32.842Z,24.80
2022-10-20T21:48:00.908Z,26.10
2022-10-20T21:50:28.882Z,37.73
2022-10-20T21:52:56.983Z,24.53
2022-10-20T21:55:25.044Z,34.63
2022-10-20T21:57:54.317Z,26.57
2022-10-20T22:00:23.970Z,25.27
2022-10-20T22:02:52.115Z,25.10
2022-10-20T22:05:20.186Z,21.97
2022-10-20T22:07:48.225Z,29.83
2022-10-20T22:10:16.380Z,24.53
2022-10-20T22:12:44.327Z,25.67
2022-10-20T22:15:13.818Z,29.63
2022-10-20T22:17:41.858Z,26.53
2022-10-20T22:20:11.007Z,29.83
2022-10-20T22:22:39.260Z,26.43
2022-10-20T22:25:08.585Z,28.03
2022-10-20T22:27:42.254Z,33.37
2022-10-20T22:30:13.233Z,29.33
2022-10-20T22:32:41.168Z,25.77
2022-10-20T22:35:09.611Z,30.27
2022-10-20T22:37:37.664Z,27.60
2022-10-20T22:40:06.634Z,23.77
2022-10-20T22:42:34.610Z,22.73
2022-10-20T22:45:02.729Z,23.07
2022-10-20T22:47:32.246Z,25.23
2022-10-20T22:50:00.441Z,23.77
2022-10-20T22:52:28.460Z,28.80
2022-10-20T22:54:56.432Z,23.40
2022-10-20T22:57:24.545Z,38.77
2022-10-20T22:59:53.694Z,40.10
2022-10-20T23:02:21.836Z,31.03
2022-10-20T23:04:51.693Z,27.43
2022-10-20T23:07:19.661Z,22.30
2022-10-20T23:09:48.670Z,28.73
2022-10-20T23:12:16.743Z,26.73
2022-10-20T23:14:46.219Z,28.53
2022-10-20T23:17:15.328Z,34.70
2022-10-20T23:19:43.384Z,27.40
2022-10-20T23:22:12.721Z,27.03
2022-10-20T23:24:41.097Z,24.60
2022-10-20T23:27:09.426Z,27.37
2022-10-20T23:29:37.410Z,25.83
2022-10-20T23:32:05.914Z,27.70
2022-10-20T23:37:06.872Z,31.50
2022-10-20T23:39:36.315Z,29.07
2022-10-20T23:42:07.251Z,25.73
2022-10-20T23:44:35.487Z,27.00
2022-10-20T23:47:03.467Z,28.70
2022-10-20T23:49:31.436Z,36.57
2022-10-20T23:51:59.490Z,30.30
2022-10-20T23:54:27.561Z,26.13
2022-10-20T23:56:56.993Z,28.37
2022-10-20T23:59:25.106Z,34.23
